Aeroporto :
LOGIN :

Iscrizione | Disclaimer

   EN    FR    IT 

 










Sommario :    VFR   VFR Marginale   IFR   IFR Intensivo   IFR Molto Intensivo
Visibilità : 
Base nubi : 
>= 8 km
>= 3000ft
5 / 8 km
1000 / 3000 ft
1500m / 5 km
500 / 1000 ft
800 / 1500m
200 / 500 ft
< 800m
< 200 ft
Simboli :   Temporali  Nebbia  Neve Forte  Precipitazioni Forti  Vento > 20 kt
SIGMETs :   Varie  Temporali  Ghiacco  Turbolenza  Onda orograficha  Ceneri Vulcaniche






- Altitudine del aeroporto : 90 ft
- Codice IATA : NTE


LFRS - Nantes

ULTIMO METAR :
  • 070230Z AUTO 01003KT CAVOK 10/09 Q1024 NOSIG

METARs OBSOLETI :
  • 070200Z AUTO 02003KT 350V050 CAVOK 11/09 Q1024 NOSIG
  • 070130Z AUTO 01004KT 340V040 CAVOK 11/09 Q1024 NOSIG
  • 070100Z AUTO 01003KT 330V040 CAVOK 12/09 Q1025 NOSIG
  • 070030Z AUTO 02005KT 350V060 CAVOK 12/09 Q1025 NOSIG
  • 070000Z AUTO 01004KT 330V040 CAVOK 13/09 Q1025 NOSIG

TAF TAF LFRS
Valido dal 07 a 00 ore il 08 a 06 ore UTC


062300Z 0700/0806 01006KT CAVOK
ATIS : +33 2 40 05 12 74



MetMap, La meteo Aeronautica in un colpo d'occhio ! - Copyright ORBIFLY Dicembre 2007 - Disclaimer

ORBIFLY MET'MAP TEAM :

Programmazione e sviluppo : Alexandra Zaïnal
Concezione : Baudouin d'Aumeries
Aiuto per la programmazione : Marc-Olivier Méhu
Supporto tecnico e logistico : Manuel Goepfert
Aiuto per la traduzione : Arnaldo La Scala

Contatto : metmap@orbifly.com




FONTI E CREDITI :

   NOAA